| time (UTC) | temp C | wind direction | speed KPH | gust KPH | rain 1hr cm | rain 24hr cm | rain mn cm | humidity % | barometer mb |
| 20260505023103 | 10 | 0.0 | 0.0 | 0.00 | 0.13 | 0.13 | 75 | 1003.9 | |
| 20260505021523 | 10 | 0.0 | 3.2 | 0.00 | 0.13 | 0.13 | 75 | 1003.7 | |
| 20260505020029 | 10 | 0.0 | 3.2 | 0.03 | 0.13 | 0.13 | 75 | 1003.7 | |
| 20260505014549 | 10 | 0.0 | 4.8 | 0.05 | 0.13 | 0.13 | 75 | 1003.8 | |
| 20260505013003 | 10 | 1.6 | 4.8 | 0.08 | 0.13 | 0.13 | 75 | 1003.7 | |
| 20260505011553 | 10 | 0.0 | 0.0 | 0.08 | 0.13 | 0.13 | 75 | 1003.8 | |
| 20260505010053 | 11 | 0.0 | 3.2 | 0.08 | 0.10 | 0.10 | 73 | 1003.3 | |
| 20260505004507 | 11 | 0.0 | 4.8 | 0.08 | 0.08 | 0.08 | 72 | 1003.3 | |
| 20260505003025 | 11 | 0.0 | 4.8 | 0.05 | 0.05 | 0.05 | 71 | 1003.3 | |
| 20260505001543 | 12 | 0.0 | 3.2 | 0.05 | 0.05 | 0.05 | 63 | 1002.9 | |
| 20260505000109 | 13 | 0.0 | 6.4 | 0.03 | 0.03 | 0.03 | 60 | 1002.8 | |
| 20260504234603 | 14 | 0.0 | 14.5 | 0.00 | 0.00 | 0.00 | 52 | 1002.8 | |
| 20260504233019 | 16 | 4.8 | 12.9 | 0.00 | 0.00 | 0.00 | 39 | 1002.5 | |
| 20260504231536 | 16 | 0.0 | 8.0 | 0.00 | 0.00 | 0.00 | 37 | 1002.0 | |
| 20260504230056 | 17 | 3.2 | 9.7 | 0.00 | 0.00 | 0.00 | 36 | 1001.5 | |
| 20260504224511 | 17 | 4.8 | 11.3 | 0.00 | 0.00 | 0.00 | 35 | 1001.1 | |
| 20260504223034 | 18 | 4.8 | 16.1 | 0.00 | 0.00 | 0.00 | 35 | 1001.2 | |
| 20260504221547 | 18 | 4.8 | 12.9 | 0.00 | 0.00 | 0.00 | 35 | 1001.2 | |
| 20260504220003 | 17 | 4.8 | 11.3 | 0.00 | 0.00 | 0.00 | 36 | 1001.6 | |
| 20260504214522 | 16 | 4.8 | 11.3 | 0.00 | 0.00 | 0.00 | 37 | 1001.9 | |
| 20260504213037 | 16 | 0.0 | 8.0 | 0.00 | 0.00 | 0.00 | 39 | 1001.9 | |
| 20260504211600 | 16 | 6.4 | 24.1 | 0.00 | 0.00 | 0.00 | 38 | 1001.7 | |
| 20260504210018 | 17 | 9.7 | 19.3 | 0.00 | 0.00 | 0.00 | 34 | 1001.6 | |
| 20260504204532 | 17 | 6.4 | 16.1 | 0.00 | 0.00 | 0.00 | 36 | 1001.5 | |
| 20260504203055 | 17 | 9.7 | 27.4 | 0.00 | 0.00 | 0.00 | 35 | 1001.3 | |
| 20260504201504 | 17 | 9.7 | 30.6 | 0.00 | 0.00 | 0.00 | 36 | 1001.5 | |
| 20260504200031 | 17 | 9.7 | 27.4 | 0.00 | 0.00 | 0.00 | 30 | 1002.1 | |
| 20260504194530 | 18 | 8.0 | 22.5 | 0.00 | 0.00 | 0.00 | 30 | 1001.5 | |
| 20260504193006 | 18 | 8.0 | 19.3 | 0.00 | 0.00 | 0.00 | 28 | 1001.1 | |
| 20260504191520 | 19 | 8.0 | 20.9 | 0.00 | 0.00 | 0.00 | 26 | 1000.9 | |
| 20260504190059 | 20 | 1.6 | 16.1 | 0.00 | 0.00 | 0.00 | 24 | 1000.4 | |
| 20260504184626 | 20 | 12.9 | 24.1 | 0.00 | 0.00 | 0.00 | 24 | 1000.6 | |
| 20260504183016 | 21 | 6.4 | 17.7 | 0.00 | 0.00 | 0.00 | 22 | 1000.4 | |
| 20260504181532 | 21 | 6.4 | 17.7 | 0.00 | 0.00 | 0.00 | 23 | 1000.3 | |
| 20260504180100 | 21 | 4.8 | 12.9 | 0.00 | 0.00 | 0.00 | 24 | 1000.4 | |
| 20260504174512 | 21 | 4.8 | 11.3 | 0.00 | 0.00 | 0.00 | 23 | 1000.7 | |
| 20260504173043 | 21 | 4.8 | 16.1 | 0.00 | 0.00 | 0.00 | 21 | 1000.9 | |
| 20260504171600 | 21 | 6.4 | 14.5 | 0.00 | 0.00 | 0.00 | 22 | 1001.1 | |
| 20260504100105 | 5 | 0.0 | 0.0 | 0.00 | 0.00 | 0.00 | 66 | 1002.8 | |
| 20260504081510 | 8 | 0.0 | 1.6 | 0.00 | 0.00 | 0.00 | 50 | 1003.6 | |
| 20260504050021 | 13 | 1.6 | 4.8 | 0.00 | 0.00 | 0.00 | 38 | 1004.5 | |
| 20260504044539 | 13 | 1.6 | 6.4 | 0.00 | 0.00 | 0.00 | 37 | 1004.4 | |
| 20260504043057 | 14 | 4.8 | 11.3 | 0.00 | 0.00 | 0.00 | 34 | 1004.5 | |
| 20260504041513 | 15 | 3.2 | 11.3 | 0.00 | 0.00 | 0.00 | 32 | 1004.5 | |
| 20260504040036 | 16 | 6.4 | 14.5 | 0.00 | 0.00 | 0.00 | 30 | 1004.7 | |
| 20260504034504 | 17 | 4.8 | 12.9 | 0.00 | 0.00 | 0.00 | 26 | 1004.6 | |
| 20260504033014 | 16 | 3.2 | 8.0 | 0.00 | 0.00 | 0.00 | 29 | 1004.2 | |
| 20260504031541 | 16 | 1.6 | 9.7 | 0.00 | 0.00 | 0.00 | 31 | 1004.0 | |
| 20260504030058 | 15 | 0.0 | 0.0 | 0.00 | 0.00 | 0.00 | 31 | 1003.4 | |
| 20260504024535 | 15 | 0.0 | 1.6 | 0.00 | 0.00 | 0.00 | 31 | 1003.3 |